Flight Track Log - Related Links

Times and Time Zones

All times are in EDT time to prevent confusion due to time zone crossing. See the N600TR flight status page for this flight to view local times or setup timezone preferences in your user account.

Time Position Orientation Groundspeed Altitude Reporting Facility
EDT Latitude Longitude Course Direction KTS MPH feet Rate Location/Type
Fri 07:16:10 AM 41.9167 -87.9167 180° South 190 219 2,000  Level Chicago TRACON
Fri 07:17:04 AM 41.8667 -87.9167 180° South 242 278 3,900 2,019 Climbing Chicago TRACON
Fri 07:17:57 AM 41.8069 -87.9083 174° South 245 282 5,600 2,053 Climbing Chicago Center
Fri 07:18:00 AM 41.6796 -87.7650 180° South  Level Estimated
Fri 07:18:58 AM 41.7353 -87.8822 165° South 264 304 7,800  Level Chicago Center
Fri 07:19:00 AM 41.5789 -87.7180 180° South  Level Estimated
Fri 07:19:59 AM 41.6569 -87.8603 168° South 283 326 10,000  Level Chicago Center
Fri 07:20:00 AM 41.4782 -87.6712 168° South  Level Estimated
Fri 07:21:00 AM 41.3772 -87.6244 180° South  Level Estimated
Fri 07:21:01 AM 41.5728 -87.8500 175° South 301 346 11,100  Level Chicago Center
Fri 07:22:02 AM 41.4761 -87.8411 176° South 341 392 12,800 1,672 Climbing Chicago Center
Fri 07:23:03 AM 41.3789 -87.8239 172° South 348 400 14,500 1,672 Climbing Chicago Center
Fri 07:24:04 AM 41.2800 -87.7919 166° South 359 413 16,200 1,574 Climbing Chicago Center
Fri 07:25:05 AM 41.1778 -87.7583 166° South 371 427 17,700 1,426 Climbing Chicago Center
Fri 07:26:06 AM 41.0742 -87.7247 166° South 381 438 19,100 1,317 Climbing Chicago Center
Fri 07:27:08 AM 40.9672 -87.6881 165° South 392 451 20,400 1,317 Climbing Chicago Center
Fri 07:28:09 AM 40.8592 -87.6575 168° South 397 457 21,800 1,377 Climbing Chicago Center
Fri 07:29:10 AM 40.7236 -87.6461 176° South 406 467 23,200 1,220 Climbing Chicago Center
Fri 07:30:12 AM 40.6086 -87.6414 178° South 414 476 24,300 1,122 Climbing Chicago Center
Fri 07:31:13 AM 40.4944 -87.6133 169° South 419 482 25,500 984 Climbing Chicago Center
Fri 07:32:14 AM 40.3797 -87.5756 166° South 424 488 26,300 683 Climbing Chicago Center
Fri 07:33:16 AM 40.2619 -87.5358 166° South 436 502 26,900 732 Climbing Chicago Center
Fri 07:34:17 AM 40.1283 -87.4872 164° South 445 512 27,800 857 Climbing Chicago Center
Fri 07:35:08 AM 40.0303 -87.4536 165° South 446 513 28,500 637 Climbing Indianapolis Center
Fri 07:36:10 AM 39.9089 -87.4075 164° South 456 525 29,000 244 Climbing Indianapolis Center
Fri 07:37:11 AM 39.7864 -87.3608 164° South 461 531 29,000  Level Indianapolis Center
Fri 07:38:12 AM 39.6625 -87.3144 164° South 465 535 29,000  Level Indianapolis Center
Fri 07:39:13 AM 39.5383 -87.2656 163° South 469 540 29,000  Level Indianapolis Center
Fri 07:40:15 AM 39.3919 -87.2083 163° South 462 532 29,000  Level Indianapolis Center
Fri 07:41:16 AM 39.2694 -87.1611 163° South 461 531 29,000  Level Indianapolis Center
Fri 07:42:18 AM 39.1481 -87.1056 160° South 465 535 29,000  Level Indianapolis Center
Fri 07:43:19 AM 39.0239 -87.0494 161° South 461 531 29,000  Level Indianapolis Center
Fri 07:44:21 AM 38.9028 -86.9953 161° South 459 528 29,000  Level Indianapolis Center
Fri 07:45:22 AM 38.7808 -86.9392 160° South 462 532 29,000  Level Indianapolis Center
Fri 07:46:23 AM 38.6581 -86.8906 163° South 459 528 29,000  Level Indianapolis Center
Fri 07:47:25 AM 38.5331 -86.8528 167° South 455 524 29,000  Level Indianapolis Center
Fri 07:48:26 AM 38.4069 -86.8153 167° South 454 522 29,000  Level Indianapolis Center
Fri 07:49:28 AM 38.2800 -86.7828 169° South 456 525 29,000  Level Indianapolis Center
Fri 07:50:29 AM 38.1528 -86.7769 178° South 449 517 29,000  Level Indianapolis Center
Fri 07:51:31 AM 38.0250 -86.7667 176° South 452 520 29,000  Level Indianapolis Center
Fri 07:52:32 AM 37.8992 -86.7542 176° South 450 518 29,000  Level Indianapolis Center
Fri 07:53:34 AM 37.7728 -86.7356 173° South 451 519 29,000  Level Indianapolis Center
Fri 07:54:35 AM 37.6472 -86.7119 172° South 453 521 29,000  Level Indianapolis Center
Fri 07:55:37 AM 37.5136 -86.6783 169° South 455 524 29,000  Level Indianapolis Center
Fri 07:56:38 AM 37.3897 -86.6331 164° South 461 531 29,000  Level Indianapolis Center
Fri 07:57:39 AM 37.2697 -86.5797 161° South 455 524 29,000  Level Indianapolis Center
Fri 07:58:41 AM 37.1272 -86.5178 161° South 460 529 29,000  Level Indianapolis Center
Fri 07:59:42 AM 37.0058 -86.4650 161° South 458 527 29,000  Level Indianapolis Center
Fri 08:00:44 AM 36.8833 -86.4164 162° South 458 527 29,000  Level Indianapolis Center
Fri 08:01:45 AM 36.7561 -86.4092 177° South 456 525 29,000  Level Indianapolis Center
Fri 08:02:47 AM 36.6281 -86.4061 179° South 454 522 29,000  Level Indianapolis Center
Fri 08:03:48 AM 36.5000 -86.4042 179° South 453 521 29,000  Level Indianapolis Center
Fri 08:04:50 AM 36.3706 -86.4008 179° South 455 524 29,000  Level Indianapolis Center
Fri 08:05:52 AM 36.2403 -86.3981 179° South 459 528 29,000  Level Indianapolis Center
Fri 08:06:53 AM 36.1108 -86.3950 179° South 457 526 29,000  Level Indianapolis Center
Fri 08:07:54 AM 35.9719 -86.3892 178° South 461 531 29,000 -116 Level Memphis Center
Fri 08:09:28 AM 35.7878 -86.3811 178° South 474 545 28,700 -429 Descending Atlanta Center
Fri 08:10:28 AM 35.6681 -86.3164 156° South 453 521 27,900 -750 Descending Atlanta Center
Fri 08:11:28 AM 35.5633 -86.2267 145° Southeast 460 529 27,200 -450 Descending Atlanta Center
Fri 08:12:28 AM 35.4628 -86.1322 143° Southeast 460 529 27,000 -450 Descending Atlanta Center
Fri 08:13:28 AM 35.3475 -86.0247 143° Southeast 466 536 26,300 -1,050 Descending Atlanta Center
Fri 08:14:28 AM 35.2469 -85.9258 141° Southeast 466 536 24,900 -1,100 Descending Atlanta Center
Fri 08:15:28 AM 35.1522 -85.8347 142° Southeast 454 522 24,100 -450 Descending Atlanta Center
Fri 08:16:28 AM 35.0556 -85.7489 144° Southeast 442 509 24,000 -50 Descending Atlanta Center
Fri 08:17:28 AM 34.9522 -85.6733 149° Southeast 435 501 24,000  Level Atlanta Center
Fri 08:18:28 AM 34.8467 -85.5978 150° Southeast 435 501 24,000  Level Atlanta Center
Fri 08:19:28 AM 34.7411 -85.5250 150° Southeast 440 506 24,000  Level Atlanta Center
Fri 08:20:28 AM 34.6397 -85.4500 149° Southeast 440 506 24,000 -400 Level Atlanta Center
Fri 08:21:28 AM 34.5383 -85.3728 148° Southeast 440 506 23,200 -1,900 Descending Atlanta Center
Fri 08:22:28 AM 34.4369 -85.3056 151° Southeast 430 495 20,200 -2,850 Descending Atlanta Center
Fri 08:23:28 AM 34.3436 -85.2514 154° Southeast 419 482 17,500 -2,700 Descending Atlanta Center
Fri 08:24:28 AM 34.2458 -85.1922 153° Southeast 402 463 14,800 -2,100 Descending Atlanta Center
Fri 08:25:28 AM 34.1653 -85.1108 140° Southeast 389 448 13,300 -900 Descending Atlanta Center
Fri 08:26:28 AM 34.1056 -85.0297 132° Southeast 347 399 13,000 -150 Descending Atlanta Center
Fri 08:27:28 AM 34.0414 -84.9539 136° Southeast 321 369 13,000 -600 Level Atlanta Center
Fri 08:28:28 AM 33.9686 -84.9206 159° South 287 330 11,800 -1,300 Descending Atlanta Center
Fri 08:29:28 AM 33.8892 -84.9172 178° South 280 322 10,400 -1,200 Descending Atlanta Center
Fri 08:30:28 AM 33.8078 -84.9164 180° South 286 329 9,400 -1,100 Descending Atlanta Center
Fri 08:31:28 AM 33.7306 -84.9156 179° South 286 329 8,200 -900 Descending Atlanta Center
Fri 08:32:28 AM 33.6597 -84.9122 178° South 255 293 7,600 -667 Descending Atlanta Center
Fri 08:33:25 AM 33.6333 -84.8500 117° Southeast 200 230 6,900 -595 Descending Atlanta TRACON
Fri 08:34:19 AM 33.6333 -84.8000 90° East 209 241 6,500 -842 Descending Atlanta TRACON
Fri 08:35:19 AM 33.6333 -84.7167 90° East 209 241 5,300 -1,100 Descending Atlanta TRACON
Fri 08:36:19 AM 33.6333 -84.6500 90° East 202 232 4,300 -1,053 Descending Atlanta TRACON
Fri 08:37:13 AM 33.6333 -84.6000 90° East 189 217 3,300 -944 Descending Atlanta TRACON
Fri 08:38:07 AM 33.6333 -84.5500 90° East 165 190 2,600 -737 Descending Atlanta TRACON
Fri 08:39:07 AM 33.6333 -84.5000 90° East 122 140 1,900 -684 Descending Atlanta TRACON
Fri 08:40:01 AM 33.6333 -84.4667 90° East 134 154 1,300 -667 Descending Atlanta TRACON

Login

Don't have an account? Register now (free) for customized features, flight alerts, and more!